Tyro, Virginia
Current Conditions -  °F | °C
As of 10:15 AM on Monday 24 Nov 2014 (Local Time) from KW13 Reporting Station
Scattered Clouds Scattered Clouds  
Wind Chill: 61°   Ceiling: Unl
Heat Index: 61°   Visibility: 10mi
Dew Point: 51°   Wind: 10mph
Humidity: 72%   Direction: 180°S
Pressure: 29.7"   Gusts: 20mph
Location:  37.81°N, 79.02°W
Report Text: KW13 241515Z AUTO 18009G17KT 10SM SCT027 SCT034 SCT042 16/11 A2970 RMK AO1 T01590108
Loading
Personal Weather Stations






























Interactive Weather Map New forecast layout! Learn more

10-Day Weather Forecast

Advertisements
Track Severe Weather on mobile